createdAt,value
2022-12-20T00:03:08.955Z,1006.701
2022-12-20T00:23:07.822Z,1006.443
2022-12-20T00:43:07.704Z,1006.249
2022-12-20T01:03:09.177Z,1006.084
2022-12-20T01:23:07.085Z,1005.986
2022-12-20T01:43:07.929Z,1006.053
2022-12-20T02:03:09.351Z,1005.881
2022-12-20T02:23:07.501Z,1005.733
2022-12-20T02:43:07.421Z,1005.573
2022-12-20T03:03:09.325Z,1005.197
2022-12-20T03:23:07.384Z,1005.254
2022-12-20T03:43:07.201Z,1005.274
2022-12-20T04:03:08.518Z,1005.553
2022-12-20T04:23:07.442Z,1005.445
2022-12-20T04:43:07.531Z,1005.251
2022-12-20T05:03:09.292Z,1005.383
2022-12-20T05:23:07.427Z,1005.135
2022-12-20T05:43:07.692Z,1005.246
2022-12-20T06:03:09.157Z,1005.058
2022-12-20T06:23:08.120Z,1005.009
2022-12-20T06:43:08.057Z,1004.949
2022-12-20T07:03:09.557Z,1004.779
2022-12-20T07:23:07.712Z,1004.776
2022-12-20T07:43:07.760Z,1004.529
2022-12-20T08:03:09.338Z,1004.474
2022-12-20T08:23:07.270Z,1004.443
2022-12-20T08:43:11.282Z,1004.322
2022-12-20T09:03:09.261Z,1004.433
2022-12-20T09:23:07.522Z,1004.147
2022-12-20T09:43:07.674Z,1003.925
2022-12-20T10:03:12.314Z,1003.989
2022-12-20T10:23:07.465Z,1003.958
2022-12-20T10:43:07.426Z,1003.584
2022-12-20T11:03:09.474Z,1003.581
2022-12-20T11:23:07.597Z,1003.199
2022-12-20T11:43:07.776Z,1002.879
2022-12-20T12:03:08.994Z,1002.665
2022-12-20T12:23:07.976Z,1002.51
2022-12-20T12:43:08.183Z,1002.365
2022-12-20T13:03:09.703Z,1002.298
2022-12-20T13:23:07.752Z,1002.255
2022-12-20T13:43:07.845Z,1002.306
2022-12-20T14:03:09.404Z,1002.272
2022-12-20T14:23:07.944Z,1002.151
2022-12-20T14:43:07.917Z,1002.048
2022-12-20T15:03:10.227Z,1002.247
2022-12-20T15:23:07.338Z,1002.324
2022-12-20T15:43:07.626Z,1002.267
2022-12-20T16:03:09.501Z,1002.076
2022-12-20T16:23:07.519Z,1001.998
2022-12-20T16:43:07.694Z,1001.883
2022-12-20T17:03:09.315Z,1001.788
2022-12-20T17:24:12.236Z,1001.819
2022-12-20T17:43:08.095Z,1001.868
2022-12-20T18:04:03.889Z,1001.599
2022-12-20T18:23:07.376Z,1001.485
2022-12-20T18:43:07.796Z,1001.361
2022-12-20T19:03:09.209Z,1001.294
2022-12-20T19:23:07.175Z,1001.101
2022-12-20T19:43:07.335Z,1001.138
2022-12-20T20:03:09.180Z,1001.246
2022-12-20T20:23:07.323Z,1001.18
2022-12-20T20:43:07.468Z,1001.183
2022-12-20T21:03:09.232Z,1001.033
2022-12-20T21:23:07.388Z,1000.927
2022-12-20T21:43:07.640Z,1000.841
2022-12-20T22:03:09.202Z,1000.865
2022-12-20T22:23:07.319Z,1000.941
2022-12-20T22:43:07.505Z,1000.853
2022-12-20T23:03:10.128Z,1000.9
2022-12-20T23:23:08.245Z,1000.919
2022-12-20T23:43:08.041Z,1000.754
